Ariel, Israel
Current Conditions -  °F | °C
As of 10:50 AM on Wednesday 22 Oct 2014 (Local Time) from LLHA Reporting Station
Clear Clear  
Wind Chill: 75°   Ceiling: Unl
Heat Index: 75°   Visibility: 6mi
Dew Point: 43°   Wind: 10mph
Humidity: 31%   Direction: 130°SE
Pressure: 30.03"   Gusts: NA
Location:  32.47°N, 35.13°E
Report Text: LLHA 220750Z 13009KT 100V160 CAVOK 24/06 Q1017
Loading
Personal Weather Stations






























Interactive Weather Map
Tropical Storm Tracking
New forecast layout! Learn more

10-Day Weather Forecast

Advertisements
Track Severe Weather on mobile